Time;durP1;ratioP1;P1;durP2;ratioP2;P2;SDS_P1;SDS_P2;PMS_P1;PMS_P2;Temp;Humidity;BMP_temperature;BMP_pressure;BME280_temperature;BME280_humidity;BME280_pressure;Samples;Min_cycle;Max_cycle;Signal;HPM_P1;HPM_P2
2023/10/06 00:02:19;;;;;;;90.73;85.83;;;14.80;93.60;;;;;;5057407;28;20368;-74
2023/10/06 00:04:45;;;;;;;97.73;93.00;;;14.90;93.50;;;;;;5044701;28;20371;-74
2023/10/06 00:07:14;;;;;;;111.23;105.53;;;14.80;93.60;;;;;;5036815;28;20362;-73
2023/10/06 00:09:43;;;;;;;92.30;87.60;;;14.90;93.40;;;;;;5027433;28;20051;-74
2023/10/06 00:12:13;;;;;;;94.43;89.50;;;14.90;93.60;;;;;;5054714;28;20832;-74
2023/10/06 00:14:39;;;;;;;105.53;99.60;;;14.90;93.40;;;;;;5036199;28;20326;-74
2023/10/06 00:17:09;;;;;;;102.93;97.73;;;14.90;93.30;;;;;;5037719;28;20283;-74
2023/10/06 00:19:37;;;;;;;101.47;96.00;;;14.90;93.30;;;;;;5037273;28;20398;-73
2023/10/06 00:22:26;;;;;;;100.40;95.37;;;14.90;93.40;;;;;;5050377;28;20339;-74
2023/10/06 00:24:58;;;;;;;94.57;89.97;;;14.90;93.40;;;;;;5049531;28;20283;-74
2023/10/06 00:27:29;;;;;;;97.33;92.40;;;14.90;93.50;;;;;;5037251;28;20308;-74
2023/10/06 00:29:56;;;;;;;113.13;107.67;;;14.90;93.60;;;;;;5055733;28;20282;-74
2023/10/06 00:35:07;;;;;;;93.13;88.30;;;14.90;93.70;;;;;;5048075;28;20374;-74
2023/10/06 00:37:41;;;;;;;102.40;97.17;;;14.80;93.80;;;;;;5031866;28;20271;-74
2023/10/06 00:40:19;;;;;;;101.50;96.40;;;14.80;94.00;;;;;;5031808;28;20373;-74
2023/10/06 00:42:51;;;;;;;91.90;87.20;;;14.80;94.20;;;;;;5025564;28;20274;-73
2023/10/06 00:45:16;;;;;;;92.53;87.77;;;14.80;94.20;;;;;;5045556;28;20310;-74
2023/10/06 00:47:42;;;;;;;88.83;83.77;;;14.90;94.00;;;;;;5042035;28;20675;-74
2023/10/06 00:50:11;;;;;;;74.93;70.63;;;14.90;93.70;;;;;;5074729;28;20072;-74
2023/10/06 00:52:39;;;;;;;89.27;84.20;;;14.90;93.50;;;;;;5041015;28;20094;-73
2023/10/06 00:55:10;;;;;;;81.23;76.77;;;14.90;93.30;;;;;;5039634;28;20362;-74
2023/10/06 00:57:37;;;;;;;85.47;81.30;;;14.90;93.10;;;;;;5056892;28;20694;-73
2023/10/06 01:00:16;;;;;;;77.70;73.57;;;14.90;93.10;;;;;;5040875;28;20290;-73
2023/10/06 01:02:43;;;;;;;96.63;91.50;;;14.90;92.90;;;;;;5054006;28;20310;-73
2023/10/06 01:05:09;;;;;;;77.33;73.23;;;14.90;92.90;;;;;;5057143;28;20365;-74
2023/10/06 01:07:36;;;;;;;96.07;90.83;;;14.90;92.80;;;;;;5051643;28;21160;-73
2023/10/06 01:10:14;;;;;;;84.67;80.00;;;14.90;92.70;;;;;;5035064;28;20634;-73
2023/10/06 01:12:40;;;;;;;93.17;88.00;;;14.90;92.70;;;;;;5034523;28;20798;-73
2023/10/06 01:15:29;;;;;;;102.93;97.40;;;14.90;92.80;;;;;;5048929;28;20282;-73
2023/10/06 01:17:57;;;;;;;86.87;82.13;;;14.90;92.80;;;;;;5046030;28;20511;-73
2023/10/06 01:20:41;;;;;;;79.43;74.73;;;14.90;92.70;;;;;;5026205;28;20341;-74
2023/10/06 01:26:02;;;;;;;90.63;85.90;;;15.00;92.90;;;;;;5040467;28;20310;-74
2023/10/06 01:28:28;;;;;;;82.43;77.87;;;14.90;93.00;;;;;;5040080;28;20290;-74
2023/10/06 01:30:54;;;;;;;92.30;87.30;;;14.90;93.30;;;;;;5059900;28;20283;-75
2023/10/06 01:33:20;;;;;;;119.70;113.77;;;14.90;93.30;;;;;;5060557;28;20051;-75
2023/10/06 01:35:45;;;;;;;89.07;84.30;;;14.90;93.40;;;;;;5041716;28;20044;-74
2023/10/06 01:38:23;;;;;;;95.40;90.20;;;14.90;93.50;;;;;;5050325;28;20535;-74
2023/10/06 01:40:53;;;;;;;97.93;92.80;;;14.90;93.50;;;;;;5045339;28;20063;-74
2023/10/06 01:43:29;;;;;;;90.13;85.27;;;14.90;93.50;;;;;;5058888;28;20275;-74
2023/10/06 01:45:55;;;;;;;106.40;101.03;;;14.90;93.40;;;;;;5059283;28;20379;-73
2023/10/06 01:50:50;;;;;;;109.23;103.27;;;14.90;93.50;;;;;;5055525;28;20044;-74
2023/10/06 01:53:18;;;;;;;76.70;72.67;;;14.90;93.30;;;;;;5076515;28;20119;-75
2023/10/06 01:55:49;;;;;;;90.90;86.43;;;14.90;93.30;;;;;;5054263;28;20321;-74
2023/10/06 01:58:15;;;;;;;67.77;63.67;;;14.90;93.20;;;;;;5056455;28;20119;-74
2023/10/06 02:00:44;;;;;;;90.90;86.13;;;14.90;93.10;;;;;;5042274;28;20305;-74
2023/10/06 02:03:10;;;;;;;88.93;84.47;;;14.90;93.10;;;;;;5034815;28;20289;-74
2023/10/06 02:05:39;;;;;;;98.73;93.83;;;14.80;93.20;;;;;;5037138;28;20283;-74
2023/10/06 02:08:14;;;;;;;94.33;89.63;;;14.80;93.10;;;;;;5049841;28;20279;-74
2023/10/06 02:10:43;;;;;;;73.73;69.60;;;14.80;93.10;;;;;;5034715;28;20306;-74
2023/10/06 02:13:08;;;;;;;84.03;79.63;;;14.80;93.00;;;;;;5056106;28;20286;-73
2023/10/06 02:15:34;;;;;;;71.30;67.37;;;14.80;93.00;;;;;;5052836;28;20939;-74
2023/10/06 02:18:00;;;;;;;75.53;71.37;;;14.80;93.00;;;;;;5039412;28;20061;-74
2023/10/06 02:22:57;;;;;;;86.47;82.07;;;14.70;93.20;;;;;;5055555;28;20055;-74
2023/10/06 02:25:25;;;;;;;77.03;72.97;;;14.70;93.40;;;;;;5056848;28;20072;-74
2023/10/06 02:27:52;;;;;;;87.27;82.70;;;14.70;93.20;;;;;;5053773;28;20307;-74
2023/10/06 02:30:19;;;;;;;95.97;90.83;;;14.70;93.30;;;;;;5057811;28;20291;-74
2023/10/06 02:32:48;;;;;;;84.30;79.57;;;14.70;93.20;;;;;;5059537;28;20283;-73
2023/10/06 02:35:17;;;;;;;57.40;53.97;;;14.60;93.50;;;;;;5058947;28;20285;-73
2023/10/06 02:37:45;;;;;;;81.37;77.13;;;14.60;93.60;;;;;;5059096;28;20279;-74
2023/10/06 02:40:11;;;;;;;85.40;80.77;;;14.60;94.00;;;;;;5058848;28;20797;-74
2023/10/06 02:42:52;;;;;;;94.73;89.83;;;14.50;94.00;;;;;;5059155;28;20320;-74
2023/10/06 02:45:21;;;;;;;82.20;77.53;;;14.50;94.10;;;;;;5042452;28;20044;-74
2023/10/06 02:47:47;;;;;;;160.67;151.93;;;14.40;94.20;;;;;;5057748;28;20290;-74
2023/10/06 02:50:17;;;;;;;90.17;85.17;;;14.40;94.30;;;;;;5055196;28;20286;-74
2023/10/06 02:52:46;;;;;;;182.47;170.03;;;14.40;94.40;;;;;;5045018;28;20283;-74
2023/10/06 02:55:13;;;;;;;81.80;77.30;;;14.40;94.60;;;;;;5049014;28;20360;-74
2023/10/06 02:57:41;;;;;;;111.03;105.20;;;14.40;94.60;;;;;;5059468;28;20314;-74
2023/10/06 03:03:11;;;;;;;73.82;69.30;;;14.40;95.10;;;;;;5033688;28;20348;-74
2023/10/06 03:05:39;;;;;;;107.45;101.15;;;14.40;95.60;;;;;;5040414;28;20040;-74
2023/10/06 03:08:08;;;;;;;60.80;56.67;;;14.40;96.20;;;;;;5060755;28;20068;-74
2023/10/06 03:10:42;;;;;;;93.67;88.17;;;14.30;96.20;;;;;;5057068;28;20288;-74
2023/10/06 03:13:15;;;;;;;103.93;98.40;;;14.30;96.90;;;;;;5061467;28;20362;-74
2023/10/06 03:15:46;;;;;;;123.03;116.40;;;14.30;97.00;;;;;;5042229;28;20350;-74
2023/10/06 03:18:13;;;;;;;99.20;93.67;;;14.30;97.50;;;;;;5060272;28;20323;-75
2023/10/06 03:20:49;;;;;;;166.47;156.83;;;14.40;97.50;;;;;;5056925;28;20298;-74
2023/10/06 03:26:04;;;;;;;113.47;107.07;;;14.40;97.90;;;;;;5049333;28;20279;-74
2023/10/06 03:28:36;;;;;;;85.73;80.87;;;14.40;98.00;;;;;;5058182;28;20308;-75
2023/10/06 03:31:30;;;;;;;114.00;107.93;;;14.50;97.90;;;;;;5054483;28;20305;-73
2023/10/06 03:33:50;;;;;;;121.87;115.40;;;14.50;98.00;;;;;;5058678;28;20283;-74
2023/10/06 03:36:16;;;;;;;123.37;116.73;;;14.50;98.20;;;;;;5059542;28;20283;-74
2023/10/06 03:38:55;;;;;;;112.17;106.03;;;14.50;98.10;;;;;;5059829;28;20295;-74
2023/10/06 03:41:26;;;;;;;130.17;123.20;;;14.50;98.00;;;;;;5036527;28;20288;-73
2023/10/06 03:43:54;;;;;;;112.03;105.80;;;14.50;97.90;;;;;;5056926;28;20274;-74
2023/10/06 03:46:24;;;;;;;126.70;119.93;;;14.50;97.90;;;;;;5058941;28;20343;-74
2023/10/06 03:48:51;;;;;;;138.33;131.13;;;14.50;97.90;;;;;;5058357;28;20302;-74
2023/10/06 03:51:20;;;;;;;181.30;172.60;;;14.50;98.00;;;;;;5054507;28;20299;-74
2023/10/06 03:53:48;;;;;;;131.70;124.67;;;14.50;98.10;;;;;;5048422;28;20284;-74
2023/10/06 03:56:17;;;;;;;159.53;151.73;;;14.60;98.00;;;;;;5050803;28;20294;-74
2023/10/06 03:58:44;;;;;;;239.50;228.07;;;14.60;98.00;;;;;;5046243;28;20818;-74
2023/10/06 04:01:14;;;;;;;181.03;172.53;;;14.60;97.90;;;;;;5040293;28;20286;-74
2023/10/06 04:03:40;;;;;;;166.77;158.33;;;14.70;97.80;;;;;;5057973;28;20349;-74
2023/10/06 04:06:05;;;;;;;153.87;145.90;;;14.70;97.60;;;;;;5038293;28;20357;-75
2023/10/06 04:08:31;;;;;;;194.80;185.07;;;14.70;97.50;;;;;;5059066;28;20520;-74
2023/10/06 04:11:00;;;;;;;165.23;156.97;;;14.70;97.50;;;;;;5058546;28;20040;-74
2023/10/06 04:13:26;;;;;;;150.30;143.03;;;14.70;97.40;;;;;;5037173;28;20036;-74
2023/10/06 04:15:52;;;;;;;193.43;183.63;;;14.70;97.30;;;;;;5039842;28;20814;-74
2023/10/06 04:18:23;;;;;;;135.13;127.83;;;14.70;97.40;;;;;;5056316;28;20460;-74
2023/10/06 04:20:53;;;;;;;170.73;162.37;;;14.70;97.30;;;;;;5055184;28;20276;-74
2023/10/06 04:23:22;;;;;;;201.97;192.20;;;14.70;97.50;;;;;;5053040;28;20279;-74
2023/10/06 04:25:50;;;;;;;125.60;119.07;;;14.70;97.70;;;;;;5060540;28;20274;-74
2023/10/06 04:28:16;;;;;;;146.03;138.93;;;14.70;98.00;;;;;;5059418;28;20290;-74
2023/10/06 04:30:45;;;;;;;193.43;184.27;;;14.70;97.90;;;;;;5047562;28;20856;-74
2023/10/06 04:33:13;;;;;;;189.90;180.40;;;14.70;98.00;;;;;;5033409;28;20352;-74
2023/10/06 04:38:37;;;;;;;189.20;180.30;;;14.70;98.10;;;;;;5057221;28;20311;-74
2023/10/06 04:41:06;;;;;;;207.23;197.43;;;14.60;98.40;;;;;;5040801;28;21133;-74
2023/10/06 04:43:32;;;;;;;178.97;169.90;;;14.60;98.60;;;;;;5027846;28;20283;-74
2023/10/06 04:45:58;;;;;;;156.10;148.20;;;14.60;98.90;;;;;;5049270;28;20283;-74
2023/10/06 04:48:23;;;;;;;201.87;191.87;;;14.60;99.10;;;;;;5051867;28;20122;-75
2023/10/06 04:50:52;;;;;;;206.53;196.90;;;14.60;99.20;;;;;;5027221;28;20047;-74
2023/10/06 04:53:18;;;;;;;181.10;172.33;;;14.60;99.20;;;;;;5051679;28;20048;-74
2023/10/06 04:55:43;;;;;;;205.97;195.93;;;14.60;99.20;;;;;;5055180;28;21004;-74
2023/10/06 04:58:13;;;;;;;202.07;192.23;;;14.60;99.20;;;;;;5057909;28;20122;-75
2023/10/06 05:00:39;;;;;;;196.67;187.17;;;14.60;99.30;;;;;;5045753;28;20122;-74
2023/10/06 05:03:06;;;;;;;382.83;365.50;;;14.60;99.10;;;;;;5040470;28;20663;-75
2023/10/06 05:05:42;;;;;;;389.00;369.80;;;14.70;98.80;;;;;;5057745;28;20306;-75
2023/10/06 05:08:09;;;;;;;372.47;354.47;;;14.70;98.70;;;;;;5047852;28;20782;-74
2023/10/06 05:10:37;;;;;;;360.93;343.43;;;14.70;98.50;;;;;;5055322;28;20286;-74
2023/10/06 05:13:06;;;;;;;390.57;371.93;;;14.70;98.50;;;;;;5057357;28;20779;-76
2023/10/06 05:15:36;;;;;;;447.97;426.80;;;14.70;98.40;;;;;;5030525;28;20398;-75
2023/10/06 05:18:03;;;;;;;447.40;425.40;;;14.70;98.40;;;;;;5051649;28;20746;-72
2023/10/06 05:20:35;;;;;;;398.60;379.83;;;14.70;98.30;;;;;;5050553;28;20282;-73
2023/10/06 05:23:09;;;;;;;493.30;467.83;;;14.70;98.30;;;;;;5056066;28;20282;-72
2023/10/06 05:25:36;;;;;;;446.60;425.48;;;14.70;98.20;;;;;;5033099;28;20290;-72
2023/10/06 05:28:03;;;;;;;451.33;429.73;;;14.60;98.30;;;;;;5054564;28;20055;-73
2023/10/06 05:30:29;;;;;;;408.87;389.73;;;14.60;98.40;;;;;;5034256;28;20289;-73
2023/10/06 05:32:58;;;;;;;393.63;375.20;;;14.70;98.40;;;;;;5050917;28;20287;-72
2023/10/06 05:35:36;;;;;;;356.17;340.37;;;14.60;98.50;;;;;;5043071;28;20300;-73
2023/10/06 05:38:13;;;;;;;375.30;358.20;;;14.60;98.40;;;;;;5051385;28;20798;-73
2023/10/06 05:40:42;;;;;;;408.80;389.23;;;14.60;98.50;;;;;;5054344;28;20337;-73
2023/10/06 05:43:16;;;;;;;423.13;403.50;;;14.70;98.60;;;;;;5031167;28;20275;-72
2023/10/06 05:45:42;;;;;;;414.97;395.00;;;14.60;98.50;;;;;;5048602;28;20289;-72
2023/10/06 05:48:10;;;;;;;413.50;393.67;;;14.60;98.70;;;;;;5049324;28;20386;-72
2023/10/06 05:50:36;;;;;;;469.57;444.73;;;14.60;98.80;;;;;;5046855;28;20362;-72
2023/10/06 05:53:07;;;;;;;423.40;402.20;;;14.60;98.80;;;;;;5051301;28;20283;-72
2023/10/06 05:55:41;;;;;;;387.77;369.67;;;14.70;98.80;;;;;;5047366;28;20295;-72
2023/10/06 05:58:19;;;;;;;376.03;359.10;;;14.70;98.80;;;;;;5043591;28;20314;-72
2023/10/06 06:00:52;;;;;;;532.10;504.13;;;14.70;99.00;;;;;;5053651;28;20274;-73
2023/10/06 06:03:21;;;;;;;408.27;389.70;;;14.70;99.00;;;;;;5051955;28;20278;-73
2023/10/06 06:05:52;;;;;;;521.63;492.73;;;14.70;99.10;;;;;;5030261;28;20278;-72
2023/10/06 06:08:18;;;;;;;427.67;406.00;;;14.70;99.20;;;;;;5034616;28;20850;-73
2023/10/06 06:10:45;;;;;;;417.03;397.37;;;14.70;99.30;;;;;;5040241;28;20789;-73
2023/10/06 06:13:13;;;;;;;491.93;464.43;;;14.70;99.70;;;;;;5042585;28;20283;-73
2023/10/06 06:15:39;;;;;;;419.80;399.63;;;14.70;99.70;;;;;;5053471;28;20328;-73
2023/10/06 06:18:06;;;;;;;439.17;415.87;;;14.70;99.80;;;;;;5050054;28;20306;-74
2023/10/06 06:20:31;;;;;;;424.43;403.07;;;14.70;99.80;;;;;;5035617;28;20292;-73
2023/10/06 06:23:02;;;;;;;424.03;402.50;;;14.70;99.90;;;;;;5054821;28;20313;-73
2023/10/06 06:25:29;;;;;;;446.17;425.27;;;14.80;99.70;;;;;;5039190;28;20046;-73
2023/10/06 06:27:59;;;;;;;492.77;468.30;;;14.80;99.70;;;;;;5038451;28;20283;-73
2023/10/06 06:30:25;;;;;;;469.30;446.87;;;14.80;99.70;;;;;;5054803;28;20290;-73
2023/10/06 06:32:53;;;;;;;659.07;595.97;;;14.80;99.60;;;;;;5055234;28;20278;-73
2023/10/06 06:35:21;;;;;;;409.37;390.07;;;14.80;99.40;;;;;;5054970;28;20282;-72
2023/10/06 06:37:52;;;;;;;378.73;360.10;;;14.80;99.50;;;;;;5034248;28;20286;-73
2023/10/06 06:40:19;;;;;;;461.00;434.30;;;14.80;99.50;;;;;;5054976;28;20290;-73
2023/10/06 06:42:47;;;;;;;437.50;416.67;;;14.90;99.40;;;;;;5050448;28;20358;-73
2023/10/06 06:45:13;;;;;;;543.57;510.33;;;14.90;99.60;;;;;;5037439;28;20271;-73
2023/10/06 06:47:41;;;;;;;687.27;631.03;;;14.90;99.70;;;;;;5055204;28;20291;-73
2023/10/06 06:50:09;;;;;;;560.00;526.77;;;14.90;99.90;;;;;;5051014;28;20289;-73
2023/10/06 06:52:36;;;;;;;470.57;447.50;;;14.90;99.90;;;;;;5034062;28;20278;-74
2023/10/06 06:55:01;;;;;;;541.27;506.47;;;14.90;99.90;;;;;;5029316;28;20313;-74
2023/10/06 06:57:27;;;;;;;468.00;444.07;;;14.80;99.90;;;;;;5035173;28;20288;-73
2023/10/06 06:59:53;;;;;;;452.97;430.57;;;14.80;99.90;;;;;;5055531;28;20131;-73
2023/10/06 07:02:20;;;;;;;474.37;450.27;;;14.80;99.90;;;;;;5055585;28;20055;-73
2023/10/06 07:04:47;;;;;;;572.53;540.40;;;14.80;99.90;;;;;;5037251;28;20515;-73
2023/10/06 07:07:13;;;;;;;483.30;456.83;;;14.90;99.90;;;;;;5037541;28;20369;-73
2023/10/06 07:09:38;;;;;;;440.33;418.70;;;14.80;99.90;;;;;;5052094;28;20291;-73
2023/10/06 07:12:04;;;;;;;464.03;441.40;;;14.80;99.90;;;;;;5029449;28;20041;-73
2023/10/06 07:14:30;;;;;;;480.33;456.37;;;14.80;99.90;;;;;;5054942;28;20037;-74
2023/10/06 07:16:56;;;;;;;476.10;452.07;;;14.80;99.90;;;;;;5035798;28;20789;-75
2023/10/06 07:19:23;;;;;;;495.30;469.73;;;14.80;99.90;;;;;;5044217;28;20045;-75
2023/10/06 07:21:49;;;;;;;513.53;484.83;;;14.90;99.90;;;;;;5037532;28;20036;-75
2023/10/06 07:24:15;;;;;;;525.07;495.37;;;14.90;99.90;;;;;;5036344;28;20278;-75
2023/10/06 07:26:43;;;;;;;558.53;523.80;;;15.00;99.90;;;;;;5032508;28;20275;-75
2023/10/06 07:29:10;;;;;;;711.37;658.87;;;15.00;99.90;;;;;;5049228;28;20141;-75
2023/10/06 07:31:36;;;;;;;422.13;402.37;;;15.10;99.90;;;;;;5038523;28;20282;-75
2023/10/06 07:34:05;;;;;;;465.00;441.83;;;15.10;99.90;;;;;;5035669;28;20290;-75
2023/10/06 07:36:35;;;;;;;535.10;502.23;;;15.20;99.90;;;;;;5034626;28;20048;-75
2023/10/06 07:39:03;;;;;;;571.07;535.53;;;15.30;99.90;;;;;;5054997;28;20311;-75
2023/10/06 07:41:29;;;;;;;462.57;439.37;;;15.30;99.90;;;;;;5047143;28;20596;-75
2023/10/06 07:43:56;;;;;;;649.83;604.40;;;15.40;99.90;;;;;;5051987;28;20343;-75
2023/10/06 07:46:22;;;;;;;604.73;563.50;;;15.40;99.90;;;;;;5043666;28;20043;-75
2023/10/06 07:48:50;;;;;;;511.37;485.50;;;15.40;99.90;;;;;;5048166;28;20777;-75
2023/10/06 07:51:16;;;;;;;543.43;514.50;;;15.50;99.90;;;;;;5054014;28;20282;-75
2023/10/06 07:53:45;;;;;;;562.77;531.40;;;15.60;99.90;;;;;;5047626;28;20295;-75
2023/10/06 07:56:11;;;;;;;567.53;537.70;;;15.60;99.90;;;;;;5033089;28;20503;-75
2023/10/06 07:58:43;;;;;;;637.93;598.07;;;15.70;99.90;;;;;;5030114;28;20302;-75
2023/10/06 08:01:09;;;;;;;539.43;511.43;;;15.70;99.90;;;;;;5034619;28;20306;-75
2023/10/06 08:03:38;;;;;;;571.40;540.13;;;15.70;99.10;;;;;;5036445;28;20408;-75
2023/10/06 08:06:05;;;;;;;631.73;596.63;;;15.80;99.20;;;;;;5035675;28;20298;-75
2023/10/06 08:08:35;;;;;;;764.73;704.83;;;15.90;98.80;;;;;;5036994;28;20286;-74
2023/10/06 08:11:02;;;;;;;638.73;603.23;;;16.00;98.50;;;;;;5051713;28;20274;-75
2023/10/06 08:13:30;;;;;;;641.60;600.97;;;16.20;98.20;;;;;;5054754;28;20289;-75
2023/10/06 08:15:58;;;;;;;735.60;689.73;;;16.20;97.50;;;;;;5037952;28;20279;-74
2023/10/06 08:18:26;;;;;;;656.37;618.43;;;16.30;97.30;;;;;;5037684;28;20298;-74
2023/10/06 08:20:53;;;;;;;582.40;550.77;;;16.40;96.90;;;;;;5042181;28;21185;-75
2023/10/06 08:23:19;;;;;;;693.47;646.67;;;16.40;96.90;;;;;;5031284;28;20318;-74
2023/10/06 08:25:46;;;;;;;634.20;595.33;;;16.50;96.40;;;;;;5027259;28;20311;-74
2023/10/06 08:28:12;;;;;;;767.43;709.40;;;16.60;96.40;;;;;;5044530;28;20101;-74
2023/10/06 08:30:38;;;;;;;759.60;699.77;;;16.60;95.90;;;;;;5053742;28;20283;-74
2023/10/06 08:33:08;;;;;;;854.87;749.63;;;16.70;95.40;;;;;;5037481;28;20337;-74
2023/10/06 08:35:36;;;;;;;589.00;557.37;;;16.70;94.90;;;;;;5052561;28;20048;-75
2023/10/06 08:38:02;;;;;;;786.67;728.03;;;16.70;94.90;;;;;;5034199;28;20290;-75
2023/10/06 08:40:32;;;;;;;696.97;653.57;;;16.70;95.30;;;;;;5037656;28;20275;-75
2023/10/06 08:42:58;;;;;;;876.03;789.30;;;16.80;95.30;;;;;;5047816;28;20068;-75
2023/10/06 08:45:28;;;;;;;600.97;567.63;;;16.80;94.50;;;;;;5050413;28;20302;-74
2023/10/06 08:48:01;;;;;;;675.87;628.13;;;16.90;94.30;;;;;;5034324;28;20407;-74
2023/10/06 08:50:32;;;;;;;583.43;550.57;;;16.90;94.00;;;;;;5053039;28;20758;-75
2023/10/06 08:53:00;;;;;;;956.57;875.63;;;17.00;93.70;;;;;;5026414;28;20283;-74
2023/10/06 08:55:30;;;;;;;643.37;607.27;;;17.00;93.90;;;;;;5025982;28;20283;-75
2023/10/06 08:57:59;;;;;;;733.63;685.73;;;17.10;93.70;;;;;;5048309;28;20642;-75
2023/10/06 09:00:26;;;;;;;780.47;729.60;;;17.10;93.50;;;;;;5030725;28;20318;-75
2023/10/06 09:02:54;;;;;;;726.53;681.27;;;17.10;93.00;;;;;;5049210;28;20750;-74
2023/10/06 09:05:21;;;;;;;744.63;699.03;;;17.20;93.70;;;;;;5046789;28;20311;-74
2023/10/06 09:07:58;;;;;;;758.87;711.13;;;17.20;92.60;;;;;;5043773;28;20286;-75
2023/10/06 09:10:23;;;;;;;786.67;730.70;;;17.30;92.70;;;;;;5053606;28;20415;-74
2023/10/06 09:13:16;;;;;;;721.77;679.20;;;17.30;92.10;;;;;;5048581;28;20282;-74
2023/10/06 09:15:43;;;;;;;821.37;754.87;;;17.20;91.90;;;;;;5053017;28;20040;-75
2023/10/06 09:18:18;;;;;;;708.70;667.07;;;17.20;92.20;;;;;;5028600;28;20295;-74
2023/10/06 09:20:46;;;;;;;740.65;679.20;;;17.30;92.70;;;;;;5035001;28;20291;-74
2023/10/06 09:23:31;;;;;;;635.33;600.07;;;17.40;92.50;;;;;;5053531;28;20040;-74
2023/10/06 09:25:59;;;;;;;653.27;614.37;;;17.40;92.20;;;;;;5032918;28;20271;-74
2023/10/06 09:28:26;;;;;;;802.67;742.53;;;17.30;91.90;;;;;;5046323;28;20058;-74
2023/10/06 09:31:02;;;;;;;674.47;635.60;;;17.30;91.90;;;;;;5048116;28;20052;-74
2023/10/06 09:33:41;;;;;;;692.53;652.27;;;17.40;92.30;;;;;;5053657;28;20043;-75
2023/10/06 09:36:16;;;;;;;694.33;652.03;;;17.40;92.00;;;;;;5052464;28;20116;-74
2023/10/06 09:38:44;;;;;;;649.83;610.50;;;17.50;92.40;;;;;;5025806;28;20300;-74
2023/10/06 09:41:11;;;;;;;703.57;657.67;;;17.70;92.20;;;;;;5031120;28;20033;-74
2023/10/06 09:43:40;;;;;;;682.53;643.17;;;17.80;91.00;;;;;;5051213;28;20037;-74
2023/10/06 09:46:13;;;;;;;661.20;622.37;;;17.80;91.00;;;;;;5046846;28;20067;-74
2023/10/06 09:48:43;;;;;;;701.73;660.53;;;17.80;91.00;;;;;;5034466;28;20057;-74
2023/10/06 09:51:12;;;;;;;757.73;700.27;;;17.80;90.80;;;;;;5028025;28;20028;-74
2023/10/06 09:53:39;;;;;;;771.07;721.47;;;17.80;90.80;;;;;;5027748;28;20052;-74
2023/10/06 09:56:11;;;;;;;716.67;673.40;;;17.90;90.60;;;;;;5052620;28;20773;-74
2023/10/06 09:58:45;;;;;;;708.00;665.03;;;17.90;90.60;;;;;;5046241;28;20064;-74
2023/10/06 10:01:14;;;;;;;701.53;658.95;;;17.90;90.60;;;;;;5053057;28;20109;-74
2023/10/06 10:03:41;;;;;;;686.37;643.10;;;17.90;90.60;;;;;;5036084;28;20123;-74
2023/10/06 10:06:07;;;;;;;701.00;656.50;;;18.00;90.70;;;;;;5028165;28;20109;-75
2023/10/06 10:08:41;;;;;;;800.00;736.17;;;18.10;90.60;;;;;;5030026;28;20044;-75
2023/10/06 10:11:28;;;;;;;729.80;682.83;;;18.10;89.80;;;;;;5044461;28;20384;-74
2023/10/06 10:14:36;;;;;;;650.97;614.70;;;18.10;89.50;;;;;;5043223;28;20449;-74
2023/10/06 10:17:23;;;;;;;781.27;714.33;;;18.20;89.00;;;;;;5047719;28;20491;-74
2023/10/06 10:19:51;;;;;;;1267.50;872.70;;;18.30;88.80;;;;;;5030385;28;20037;-73
2023/10/06 10:22:18;;;;;;;784.47;725.97;;;18.30;88.10;;;;;;5051152;28;20514;-74
2023/10/06 10:24:44;;;;;;;649.60;612.30;;;18.40;87.80;;;;;;5034252;28;20033;-74
2023/10/06 10:27:16;;;;;;;718.13;668.27;;;18.40;88.10;;;;;;5031801;28;20036;-74
2023/10/06 10:29:42;;;;;;;833.17;765.67;;;18.50;87.10;;;;;;5032690;28;20049;-74
2023/10/06 10:32:17;;;;;;;765.67;710.33;;;18.50;86.40;;;;;;5044321;28;20048;-74
2023/10/06 10:35:08;;;;;;;700.75;650.30;;;18.50;86.30;;;;;;5031444;28;20036;-74
2023/10/06 10:37:51;;;;;;;875.10;771.17;;;18.70;85.80;;;;;;5048150;28;20047;-74
2023/10/06 10:40:22;;;;;;;692.13;648.13;;;18.80;85.30;;;;;;5047538;28;20049;-74
2023/10/06 10:42:54;;;;;;;882.33;694.00;;;18.90;83.80;;;;;;5025234;28;20079;-73
2023/10/06 10:45:34;;;;;;;632.53;592.70;;;18.80;84.20;;;;;;5040610;28;20123;-75
2023/10/06 10:48:13;;;;;;;579.83;544.33;;;18.70;84.50;;;;;;5026526;28;20409;-74
2023/10/06 10:51:05;;;;;;;772.80;718.17;;;18.70;84.90;;;;;;5040888;28;20496;-73
2023/10/06 10:53:42;;;;;;;1649.20;873.00;;;18.60;84.30;;;;;;5037615;28;20044;-73
2023/10/06 10:56:25;;;;;;;735.93;686.30;;;18.60;84.10;;;;;;5029096;28;20338;-74
2023/10/06 10:58:50;;;;;;;704.97;659.53;;;18.60;84.40;;;;;;5035267;28;20048;-74
2023/10/06 11:01:32;;;;;;;757.03;705.97;;;18.60;84.80;;;;;;5031931;28;20041;-73
2023/10/06 11:06:39;;;;;;;700.33;655.13;;;18.70;83.70;;;;;;5048038;28;20106;-73
2023/10/06 11:09:25;;;;;;;935.70;819.23;;;18.80;84.20;;;;;;5052831;28;20060;-73
2023/10/06 11:11:55;;;;;;;662.87;621.33;;;18.80;83.50;;;;;;5031519;28;20044;-75
2023/10/06 11:14:22;;;;;;;754.93;707.93;;;18.80;83.70;;;;;;5046775;28;20126;-75
2023/10/06 11:16:48;;;;;;;755.10;708.67;;;18.80;83.20;;;;;;5052569;28;20045;-76
2023/10/06 11:19:17;;;;;;;769.60;720.13;;;18.90;83.40;;;;;;5031630;28;20052;-75
2023/10/06 11:21:44;;;;;;;868.13;776.53;;;19.00;83.00;;;;;;5031016;28;20092;-74
2023/10/06 11:24:13;;;;;;;939.47;847.33;;;19.10;82.80;;;;;;5049823;28;20041;-74
2023/10/06 11:26:38;;;;;;;671.67;633.60;;;19.10;82.40;;;;;;5048199;28;20150;-75
2023/10/06 11:29:04;;;;;;;921.87;787.07;;;19.20;83.50;;;;;;5042742;28;20057;-75
2023/10/06 11:31:30;;;;;;;814.90;751.97;;;19.30;82.20;;;;;;5044096;28;21280;-74
2023/10/06 11:33:57;;;;;;;747.57;698.40;;;19.50;82.00;;;;;;5047607;28;20124;-75
2023/10/06 11:36:23;;;;;;;748.40;699.77;;;19.50;81.40;;;;;;5032436;28;20041;-74
2023/10/06 11:38:50;;;;;;;1320.93;897.67;;;19.60;80.80;;;;;;5042528;28;20111;-74
2023/10/06 11:41:25;;;;;;;851.87;787.70;;;19.60;80.70;;;;;;5040310;28;20029;-75
2023/10/06 11:43:54;;;;;;;;;;;19.60;80.90;;;;;;5046824;28;20036;-73
2023/10/06 11:46:20;;;;;;;769.40;719.47;;;19.50;81.00;;;;;;5030494;28;19993;-74
2023/10/06 11:48:46;;;;;;;712.80;671.07;;;19.50;81.00;;;;;;5051455;28;20053;-74
2023/10/06 11:51:15;;;;;;;804.03;723.50;;;19.60;80.80;;;;;;5050084;28;20043;-75
2023/10/06 11:53:41;;;;;;;782.80;733.20;;;19.60;80.80;;;;;;5043888;28;20049;-74
2023/10/06 11:56:19;;;;;;;796.27;739.57;;;19.70;81.20;;;;;;5047852;28;20415;-74
2023/10/06 11:58:45;;;;;;;863.50;793.87;;;19.70;80.00;;;;;;5044828;28;20399;-75
2023/10/06 12:01:36;;;;;;;731.77;686.67;;;19.70;80.10;;;;;;5048151;28;20040;-76
2023/10/06 12:04:04;;;;;;;834.70;770.87;;;19.60;80.40;;;;;;5047406;28;20535;-74
2023/10/06 12:06:43;;;;;;;734.43;686.43;;;19.60;80.50;;;;;;5044107;28;20032;-76
2023/10/06 12:09:13;;;;;;;698.03;656.60;;;19.80;80.90;;;;;;5025388;28;20045;-76
2023/10/06 12:11:39;;;;;;;765.97;716.57;;;20.00;80.70;;;;;;5020241;28;20045;-76
2023/10/06 12:14:05;;;;;;;795.07;744.80;;;20.10;78.90;;;;;;5024107;28;20056;-76
2023/10/06 12:16:30;;;;;;;927.60;850.50;;;20.10;79.60;;;;;;5032349;28;20037;-75
2023/10/06 12:18:56;;;;;;;825.43;764.50;;;20.20;78.80;;;;;;5034282;28;20045;-75
2023/10/06 12:21:22;;;;;;;957.87;842.37;;;20.10;79.10;;;;;;5023369;28;20038;-76
2023/10/06 12:23:48;;;;;;;793.23;744.20;;;20.10;78.80;;;;;;5025501;28;20370;-76
2023/10/06 12:26:14;;;;;;;980.20;874.13;;;20.10;79.00;;;;;;5031282;28;20079;-76
2023/10/06 12:28:42;;;;;;;840.73;780.63;;;20.00;79.50;;;;;;5045982;28;20104;-76
2023/10/06 12:31:11;;;;;;;761.60;715.23;;;19.90;80.00;;;;;;5033628;28;20098;-75
2023/10/06 12:33:38;;;;;;;887.97;800.87;;;19.90;79.90;;;;;;5031331;28;20497;-75
2023/10/06 12:36:12;;;;;;;1361.70;862.13;;;19.60;79.40;;;;;;5023314;28;20115;-75
2023/10/06 12:38:41;;;;;;;713.50;669.20;;;19.60;80.10;;;;;;5051207;28;20045;-75
2023/10/06 12:41:07;;;;;;;811.50;742.47;;;19.50;80.00;;;;;;5035012;28;20140;-75
2023/10/06 12:43:35;;;;;;;793.30;731.93;;;19.50;80.70;;;;;;5034395;28;20539;-75
2023/10/06 12:46:05;;;;;;;793.37;729.27;;;19.50;80.30;;;;;;5029750;28;20094;-75